LEBB/BIO METAR and TAF weather

Enter ICAO airport designator
Station Type Date Time Source
LEBB METAR 2019/12/16 06:00 UTC NOAA

LEBB 160600Z 11007KT 070V140 CAVOK 13/06 Q1001 NOSIG


Station Type Date Time Source
LEBB Decoded METAR 2019/12/16 06:00 UTC NOAA

Bilbao / Sondica, Spain (LEBB) 43-18N 002-56W 37M
Dec 16, 2019 - 01:00 AM EST / 2019.12.16 0600 UTC
Wind: from the ESE (110 degrees) at 8 MPH (7 KT) (direction variable):0
Visibility: greater than 7 mile(s):0
Temperature: 55 F (13 C)
Dew Point: 42 F (6 C)
Relative Humidity: 62%
Pressure (altimeter): 29.56 in. Hg (1001 hPa)
ob: LEBB 160600Z 11007KT 070V140 CAVOK 13/06 Q1001 NOSIG
cycle: 6

Station Type Date Time Source
LEBB TAF 2019/12/16 06:28 UTC NOAA

TAF LEBB 160500Z 1606/1706 13009KT 9999 SCT055 TX17/1615Z TN08/1706Z
BECMG 1700/1702 30010KT

Example: see airport list